sensor_id;sensor_type;location;lat;lon;timestamp;P1;durP1;ratioP1;P2;durP2;ratioP2
35646;SDS011;28680;45.642;13.756;2022-12-11T00:02:19;0.47;;;0.30;;
35646;SDS011;28680;45.642;13.756;2022-12-11T00:04:45;0.47;;;0.30;;
35646;SDS011;28680;45.642;13.756;2022-12-11T00:07:11;0.30;;;0.30;;
35646;SDS011;28680;45.642;13.756;2022-12-11T00:09:37;0.20;;;0.20;;
35646;SDS011;28680;45.642;13.756;2022-12-11T00:12:03;0.47;;;0.30;;
35646;SDS011;28680;45.642;13.756;2022-12-11T00:14:30;0.30;;;0.30;;
35646;SDS011;28680;45.642;13.756;2022-12-11T00:16:56;0.30;;;0.20;;
35646;SDS011;28680;45.642;13.756;2022-12-11T00:19:22;0.22;;;0.20;;
35646;SDS011;28680;45.642;13.756;2022-12-11T00:21:47;0.25;;;0.20;;
35646;SDS011;28680;45.642;13.756;2022-12-11T00:24:13;0.30;;;0.30;;
35646;SDS011;28680;45.642;13.756;2022-12-11T00:26:39;0.22;;;0.22;;
35646;SDS011;28680;45.642;13.756;2022-12-11T00:29:05;0.20;;;0.20;;
35646;SDS011;28680;45.642;13.756;2022-12-11T00:31:33;0.63;;;0.40;;
35646;SDS011;28680;45.642;13.756;2022-12-11T00:34:00;0.30;;;0.30;;
35646;SDS011;28680;45.642;13.756;2022-12-11T00:36:26;1.55;;;0.30;;
35646;SDS011;28680;45.642;13.756;2022-12-11T00:38:52;0.40;;;0.30;;
35646;SDS011;28680;45.642;13.756;2022-12-11T00:41:19;0.28;;;0.28;;
35646;SDS011;28680;45.642;13.756;2022-12-11T00:43:45;1.25;;;0.60;;
35646;SDS011;28680;45.642;13.756;2022-12-11T00:46:11;0.30;;;0.30;;
35646;SDS011;28680;45.642;13.756;2022-12-11T00:48:37;0.20;;;0.20;;
35646;SDS011;28680;45.642;13.756;2022-12-11T00:51:04;0.25;;;0.20;;
35646;SDS011;28680;45.642;13.756;2022-12-11T00:53:30;0.25;;;0.25;;
35646;SDS011;28680;45.642;13.756;2022-12-11T00:55:55;0.35;;;0.28;;
35646;SDS011;28680;45.642;13.756;2022-12-11T00:58:21;0.30;;;0.30;;
35646;SDS011;28680;45.642;13.756;2022-12-11T01:00:47;0.30;;;0.30;;
35646;SDS011;28680;45.642;13.756;2022-12-11T01:03:14;0.20;;;0.20;;
35646;SDS011;28680;45.642;13.756;2022-12-11T01:05:41;0.20;;;0.20;;
35646;SDS011;28680;45.642;13.756;2022-12-11T01:08:15;0.40;;;0.30;;
35646;SDS011;28680;45.642;13.756;2022-12-11T01:10:41;2.55;;;0.75;;
35646;SDS011;28680;45.642;13.756;2022-12-11T01:13:07;0.20;;;0.20;;
35646;SDS011;28680;45.642;13.756;2022-12-11T01:15:38;0.30;;;0.30;;
35646;SDS011;28680;45.642;13.756;2022-12-11T01:18:08;0.25;;;0.25;;
35646;SDS011;28680;45.642;13.756;2022-12-11T01:20:39;0.43;;;0.30;;
35646;SDS011;28680;45.642;13.756;2022-12-11T01:23:06;0.80;;;0.70;;
35646;SDS011;28680;45.642;13.756;2022-12-11T01:25:35;0.55;;;0.47;;
35646;SDS011;28680;45.642;13.756;2022-12-11T01:28:04;0.30;;;0.30;;
35646;SDS011;28680;45.642;13.756;2022-12-11T01:30:31;0.35;;;0.35;;
35646;SDS011;28680;45.642;13.756;2022-12-11T01:32:57;0.43;;;0.32;;
35646;SDS011;28680;45.642;13.756;2022-12-11T01:35:24;0.20;;;0.20;;
35646;SDS011;28680;45.642;13.756;2022-12-11T01:37:50;0.30;;;0.30;;
35646;SDS011;28680;45.642;13.756;2022-12-11T01:40:17;0.30;;;0.30;;
35646;SDS011;28680;45.642;13.756;2022-12-11T01:42:44;0.30;;;0.30;;
35646;SDS011;28680;45.642;13.756;2022-12-11T01:48:11;0.35;;;0.35;;
35646;SDS011;28680;45.642;13.756;2022-12-11T01:50:46;0.30;;;0.30;;
35646;SDS011;28680;45.642;13.756;2022-12-11T01:53:28;0.30;;;0.30;;
35646;SDS011;28680;45.642;13.756;2022-12-11T01:56:02;0.30;;;0.30;;
35646;SDS011;28680;45.642;13.756;2022-12-11T01:58:31;0.32;;;0.32;;
35646;SDS011;28680;45.642;13.756;2022-12-11T02:01:13;0.20;;;0.20;;
35646;SDS011;28680;45.642;13.756;2022-12-11T02:04:16;1.38;;;0.65;;
35646;SDS011;28680;45.642;13.756;2022-12-11T02:06:45;0.20;;;0.20;;
35646;SDS011;28680;45.642;13.756;2022-12-11T02:09:15;0.55;;;0.50;;
35646;SDS011;28680;45.642;13.756;2022-12-11T02:22:27;0.30;;;0.30;;
35646;SDS011;28680;45.642;13.756;2022-12-11T02:25:40;1.55;;;0.20;;
35646;SDS011;28680;45.642;13.756;2022-12-11T02:28:33;0.20;;;0.20;;
35646;SDS011;28680;45.642;13.756;2022-12-11T02:36:57;0.30;;;0.30;;
35646;SDS011;28680;45.642;13.756;2022-12-11T02:39:28;0.20;;;0.20;;
35646;SDS011;28680;45.642;13.756;2022-12-11T02:41:56;0.30;;;0.30;;
35646;SDS011;28680;45.642;13.756;2022-12-11T02:44:24;0.50;;;0.40;;
35646;SDS011;28680;45.642;13.756;2022-12-11T02:46:54;0.35;;;0.30;;
35646;SDS011;28680;45.642;13.756;2022-12-11T02:49:22;0.30;;;0.30;;
35646;SDS011;28680;45.642;13.756;2022-12-11T02:51:50;0.45;;;0.22;;
35646;SDS011;28680;45.642;13.756;2022-12-11T02:54:20;0.22;;;0.22;;
35646;SDS011;28680;45.642;13.756;2022-12-11T02:57:08;1.95;;;0.40;;
35646;SDS011;28680;45.642;13.756;2022-12-11T02:59:44;0.52;;;0.30;;
35646;SDS011;28680;45.642;13.756;2022-12-11T03:02:13;0.20;;;0.20;;
35646;SDS011;28680;45.642;13.756;2022-12-11T03:04:41;0.38;;;0.35;;
35646;SDS011;28680;45.642;13.756;2022-12-11T03:07:11;0.30;;;0.30;;
35646;SDS011;28680;45.642;13.756;2022-12-11T03:09:43;0.50;;;0.38;;
35646;SDS011;28680;45.642;13.756;2022-12-11T03:12:14;0.40;;;0.40;;
35646;SDS011;28680;45.642;13.756;2022-12-11T03:14:48;0.30;;;0.30;;
35646;SDS011;28680;45.642;13.756;2022-12-11T03:17:16;0.30;;;0.30;;
35646;SDS011;28680;45.642;13.756;2022-12-11T03:25:12;0.40;;;0.30;;
35646;SDS011;28680;45.642;13.756;2022-12-11T03:27:56;0.20;;;0.20;;
35646;SDS011;28680;45.642;13.756;2022-12-11T03:31:08;1.65;;;0.30;;
35646;SDS011;28680;45.642;13.756;2022-12-11T03:33:41;0.30;;;0.30;;
35646;SDS011;28680;45.642;13.756;2022-12-11T03:36:19;0.22;;;0.20;;
35646;SDS011;28680;45.642;13.756;2022-12-11T03:38:50;0.30;;;0.30;;
35646;SDS011;28680;45.642;13.756;2022-12-11T03:41:22;0.30;;;0.30;;
35646;SDS011;28680;45.642;13.756;2022-12-11T03:43:51;0.30;;;0.30;;
35646;SDS011;28680;45.642;13.756;2022-12-11T03:46:21;0.20;;;0.20;;
35646;SDS011;28680;45.642;13.756;2022-12-11T03:48:54;0.70;;;0.30;;
35646;SDS011;28680;45.642;13.756;2022-12-11T03:51:25;0.45;;;0.40;;
35646;SDS011;28680;45.642;13.756;2022-12-11T03:53:54;0.43;;;0.40;;
35646;SDS011;28680;45.642;13.756;2022-12-11T03:56:20;0.85;;;0.30;;
35646;SDS011;28680;45.642;13.756;2022-12-11T03:58:48;0.30;;;0.30;;
35646;SDS011;28680;45.642;13.756;2022-12-11T04:01:14;0.30;;;0.30;;
35646;SDS011;28680;45.642;13.756;2022-12-11T04:03:40;0.40;;;0.32;;
35646;SDS011;28680;45.642;13.756;2022-12-11T04:06:05;0.28;;;0.28;;
35646;SDS011;28680;45.642;13.756;2022-12-11T04:08:31;0.32;;;0.32;;
35646;SDS011;28680;45.642;13.756;2022-12-11T04:10:57;0.20;;;0.20;;
35646;SDS011;28680;45.642;13.756;2022-12-11T04:13:42;0.50;;;0.47;;
35646;SDS011;28680;45.642;13.756;2022-12-11T04:16:08;0.38;;;0.38;;
35646;SDS011;28680;45.642;13.756;2022-12-11T04:18:34;0.30;;;0.30;;
35646;SDS011;28680;45.642;13.756;2022-12-11T04:21:19;0.38;;;0.32;;
35646;SDS011;28680;45.642;13.756;2022-12-11T04:24:03;0.40;;;0.40;;
35646;SDS011;28680;45.642;13.756;2022-12-11T04:26:45;0.30;;;0.30;;
35646;SDS011;28680;45.642;13.756;2022-12-11T04:29:12;0.30;;;0.30;;
35646;SDS011;28680;45.642;13.756;2022-12-11T04:31:39;0.50;;;0.30;;
35646;SDS011;28680;45.642;13.756;2022-12-11T04:34:05;0.75;;;0.30;;
35646;SDS011;28680;45.642;13.756;2022-12-11T04:36:30;0.35;;;0.25;;
35646;SDS011;28680;45.642;13.756;2022-12-11T04:38:56;0.30;;;0.30;;
35646;SDS011;28680;45.642;13.756;2022-12-11T04:41:22;0.60;;;0.30;;
35646;SDS011;28680;45.642;13.756;2022-12-11T04:43:48;0.40;;;0.38;;
35646;SDS011;28680;45.642;13.756;2022-12-11T04:46:16;0.30;;;0.30;;
35646;SDS011;28680;45.642;13.756;2022-12-11T04:48:48;0.93;;;0.30;;
35646;SDS011;28680;45.642;13.756;2022-12-11T04:51:16;0.35;;;0.35;;
35646;SDS011;28680;45.642;13.756;2022-12-11T04:53:42;0.20;;;0.20;;
35646;SDS011;28680;45.642;13.756;2022-12-11T04:56:10;0.70;;;0.38;;
35646;SDS011;28680;45.642;13.756;2022-12-11T04:58:38;0.30;;;0.30;;
35646;SDS011;28680;45.642;13.756;2022-12-11T05:01:16;0.30;;;0.30;;
35646;SDS011;28680;45.642;13.756;2022-12-11T05:03:45;0.50;;;0.40;;
35646;SDS011;28680;45.642;13.756;2022-12-11T05:06:12;0.40;;;0.35;;
35646;SDS011;28680;45.642;13.756;2022-12-11T05:08:38;0.88;;;0.40;;
35646;SDS011;28680;45.642;13.756;2022-12-11T05:11:08;0.30;;;0.30;;
35646;SDS011;28680;45.642;13.756;2022-12-11T05:13:36;0.40;;;0.40;;
35646;SDS011;28680;45.642;13.756;2022-12-11T05:16:03;0.22;;;0.22;;
35646;SDS011;28680;45.642;13.756;2022-12-11T05:18:31;0.50;;;0.40;;
35646;SDS011;28680;45.642;13.756;2022-12-11T05:20:58;0.45;;;0.40;;
35646;SDS011;28680;45.642;13.756;2022-12-11T05:23:28;0.30;;;0.30;;
35646;SDS011;28680;45.642;13.756;2022-12-11T05:25:55;0.30;;;0.30;;
35646;SDS011;28680;45.642;13.756;2022-12-11T05:28:25;0.40;;;0.40;;
35646;SDS011;28680;45.642;13.756;2022-12-11T05:31:03;0.40;;;0.40;;
35646;SDS011;28680;45.642;13.756;2022-12-11T05:33:39;0.40;;;0.40;;
35646;SDS011;28680;45.642;13.756;2022-12-11T05:36:05;0.30;;;0.30;;
35646;SDS011;28680;45.642;13.756;2022-12-11T05:38:32;0.45;;;0.45;;
35646;SDS011;28680;45.642;13.756;2022-12-11T05:40:59;0.40;;;0.40;;
35646;SDS011;28680;45.642;13.756;2022-12-11T05:43:28;0.40;;;0.40;;
35646;SDS011;28680;45.642;13.756;2022-12-11T05:46:42;1.85;;;0.40;;
35646;SDS011;28680;45.642;13.756;2022-12-11T05:48:46;0.50;;;0.40;;
35646;SDS011;28680;45.642;13.756;2022-12-11T05:51:15;0.35;;;0.35;;
35646;SDS011;28680;45.642;13.756;2022-12-11T05:53:43;0.30;;;0.30;;
35646;SDS011;28680;45.642;13.756;2022-12-11T05:56:11;0.60;;;0.60;;
35646;SDS011;28680;45.642;13.756;2022-12-11T05:58:42;0.50;;;0.50;;
35646;SDS011;28680;45.642;13.756;2022-12-11T06:01:10;0.50;;;0.50;;
35646;SDS011;28680;45.642;13.756;2022-12-11T06:03:59;1.15;;;0.40;;
35646;SDS011;28680;45.642;13.756;2022-12-11T06:06:26;0.50;;;0.50;;
35646;SDS011;28680;45.642;13.756;2022-12-11T06:08:53;0.40;;;0.40;;
35646;SDS011;28680;45.642;13.756;2022-12-11T06:11:22;0.50;;;0.40;;
35646;SDS011;28680;45.642;13.756;2022-12-11T06:13:49;0.40;;;0.40;;
35646;SDS011;28680;45.642;13.756;2022-12-11T06:16:16;0.40;;;0.40;;
35646;SDS011;28680;45.642;13.756;2022-12-11T06:18:43;0.75;;;0.70;;
35646;SDS011;28680;45.642;13.756;2022-12-11T06:21:13;0.40;;;0.40;;
35646;SDS011;28680;45.642;13.756;2022-12-11T06:23:43;1.17;;;0.50;;
35646;SDS011;28680;45.642;13.756;2022-12-11T06:26:11;0.38;;;0.38;;
35646;SDS011;28680;45.642;13.756;2022-12-11T06:28:38;0.93;;;0.50;;
35646;SDS011;28680;45.642;13.756;2022-12-11T06:31:04;0.50;;;0.50;;
35646;SDS011;28680;45.642;13.756;2022-12-11T06:33:32;0.93;;;0.50;;
35646;SDS011;28680;45.642;13.756;2022-12-11T06:36:05;0.40;;;0.40;;
35646;SDS011;28680;45.642;13.756;2022-12-11T06:38:35;0.80;;;0.50;;
35646;SDS011;28680;45.642;13.756;2022-12-11T06:41:02;1.38;;;0.45;;
35646;SDS011;28680;45.642;13.756;2022-12-11T06:43:31;0.57;;;0.40;;
35646;SDS011;28680;45.642;13.756;2022-12-11T06:45:58;0.40;;;0.40;;
35646;SDS011;28680;45.642;13.756;2022-12-11T06:48:27;1.10;;;0.60;;
35646;SDS011;28680;45.642;13.756;2022-12-11T06:50:53;0.40;;;0.40;;
35646;SDS011;28680;45.642;13.756;2022-12-11T06:53:18;0.68;;;0.40;;
35646;SDS011;28680;45.642;13.756;2022-12-11T06:55:44;0.70;;;0.50;;
35646;SDS011;28680;45.642;13.756;2022-12-11T06:58:12;0.50;;;0.50;;
35646;SDS011;28680;45.642;13.756;2022-12-11T07:00:57;0.65;;;0.50;;
35646;SDS011;28680;45.642;13.756;2022-12-11T07:03:36;1.33;;;0.68;;
35646;SDS011;28680;45.642;13.756;2022-12-11T07:06:11;0.50;;;0.50;;
35646;SDS011;28680;45.642;13.756;2022-12-11T07:08:37;1.38;;;0.50;;
35646;SDS011;28680;45.642;13.756;2022-12-11T07:11:07;0.75;;;0.50;;
35646;SDS011;28680;45.642;13.756;2022-12-11T07:13:36;0.40;;;0.40;;
35646;SDS011;28680;45.642;13.756;2022-12-11T07:16:03;0.52;;;0.50;;
35646;SDS011;28680;45.642;13.756;2022-12-11T07:18:34;1.60;;;0.60;;
35646;SDS011;28680;45.642;13.756;2022-12-11T07:21:05;0.60;;;0.50;;
35646;SDS011;28680;45.642;13.756;2022-12-11T07:23:32;0.50;;;0.40;;
35646;SDS011;28680;45.642;13.756;2022-12-11T07:26:03;0.63;;;0.50;;
35646;SDS011;28680;45.642;13.756;2022-12-11T07:28:31;0.77;;;0.45;;
35646;SDS011;28680;45.642;13.756;2022-12-11T07:30:57;0.65;;;0.60;;
35646;SDS011;28680;45.642;13.756;2022-12-11T07:33:23;0.60;;;0.60;;
35646;SDS011;28680;45.642;13.756;2022-12-11T07:35:49;0.57;;;0.50;;
35646;SDS011;28680;45.642;13.756;2022-12-11T07:38:15;0.40;;;0.40;;
35646;SDS011;28680;45.642;13.756;2022-12-11T07:40:41;0.70;;;0.60;;
35646;SDS011;28680;45.642;13.756;2022-12-11T07:43:19;1.02;;;0.57;;
35646;SDS011;28680;45.642;13.756;2022-12-11T07:45:44;0.57;;;0.47;;
35646;SDS011;28680;45.642;13.756;2022-12-11T07:48:13;0.77;;;0.50;;
35646;SDS011;28680;45.642;13.756;2022-12-11T07:50:39;0.90;;;0.73;;
35646;SDS011;28680;45.642;13.756;2022-12-11T07:53:05;0.90;;;0.50;;
35646;SDS011;28680;45.642;13.756;2022-12-11T07:55:31;0.95;;;0.70;;
35646;SDS011;28680;45.642;13.756;2022-12-11T07:57:58;0.60;;;0.60;;
35646;SDS011;28680;45.642;13.756;2022-12-11T08:00:24;0.88;;;0.60;;
35646;SDS011;28680;45.642;13.756;2022-12-11T08:02:50;1.05;;;0.70;;
35646;SDS011;28680;45.642;13.756;2022-12-11T08:05:16;0.73;;;0.60;;
35646;SDS011;28680;45.642;13.756;2022-12-11T08:07:42;0.60;;;0.52;;
35646;SDS011;28680;45.642;13.756;2022-12-11T08:10:08;0.55;;;0.55;;
35646;SDS011;28680;45.642;13.756;2022-12-11T08:12:34;1.83;;;0.50;;
35646;SDS011;28680;45.642;13.756;2022-12-11T08:15:00;0.85;;;0.60;;
35646;SDS011;28680;45.642;13.756;2022-12-11T08:17:26;0.70;;;0.60;;
35646;SDS011;28680;45.642;13.756;2022-12-11T08:19:52;2.15;;;0.70;;
35646;SDS011;28680;45.642;13.756;2022-12-11T08:22:18;0.98;;;0.60;;
35646;SDS011;28680;45.642;13.756;2022-12-11T08:24:45;0.70;;;0.70;;
35646;SDS011;28680;45.642;13.756;2022-12-11T08:27:11;1.70;;;0.60;;
35646;SDS011;28680;45.642;13.756;2022-12-11T08:29:37;0.75;;;0.65;;
35646;SDS011;28680;45.642;13.756;2022-12-11T08:32:03;1.17;;;1.00;;
35646;SDS011;28680;45.642;13.756;2022-12-11T08:34:29;0.82;;;0.60;;
35646;SDS011;28680;45.642;13.756;2022-12-11T08:36:54;1.17;;;0.88;;
35646;SDS011;28680;45.642;13.756;2022-12-11T08:39:20;0.70;;;0.70;;
35646;SDS011;28680;45.642;13.756;2022-12-11T08:41:46;0.82;;;0.57;;
35646;SDS011;28680;45.642;13.756;2022-12-11T08:44:12;2.38;;;1.00;;
35646;SDS011;28680;45.642;13.756;2022-12-11T08:46:38;0.88;;;0.70;;
35646;SDS011;28680;45.642;13.756;2022-12-11T08:49:03;1.23;;;0.77;;
35646;SDS011;28680;45.642;13.756;2022-12-11T08:51:30;0.70;;;0.68;;
35646;SDS011;28680;45.642;13.756;2022-12-11T08:53:57;0.80;;;0.80;;
35646;SDS011;28680;45.642;13.756;2022-12-11T08:56:25;1.00;;;0.90;;
35646;SDS011;28680;45.642;13.756;2022-12-11T08:58:53;2.03;;;1.20;;
35646;SDS011;28680;45.642;13.756;2022-12-11T09:01:25;1.00;;;0.70;;
35646;SDS011;28680;45.642;13.756;2022-12-11T09:07:33;2.05;;;0.90;;
35646;SDS011;28680;45.642;13.756;2022-12-11T09:10:00;1.45;;;1.20;;
35646;SDS011;28680;45.642;13.756;2022-12-11T09:12:26;1.15;;;0.82;;
35646;SDS011;28680;45.642;13.756;2022-12-11T09:14:52;2.38;;;1.10;;
35646;SDS011;28680;45.642;13.756;2022-12-11T09:17:19;4.55;;;1.80;;
35646;SDS011;28680;45.642;13.756;2022-12-11T09:19:44;2.42;;;1.38;;
35646;SDS011;28680;45.642;13.756;2022-12-11T09:22:10;5.25;;;2.67;;
35646;SDS011;28680;45.642;13.756;2022-12-11T09:24:37;1.98;;;1.23;;
35646;SDS011;28680;45.642;13.756;2022-12-11T09:27:03;1.58;;;1.00;;
35646;SDS011;28680;45.642;13.756;2022-12-11T09:29:30;1.35;;;1.00;;
35646;SDS011;28680;45.642;13.756;2022-12-11T09:31:56;1.00;;;0.75;;
35646;SDS011;28680;45.642;13.756;2022-12-11T09:34:22;1.95;;;1.10;;
35646;SDS011;28680;45.642;13.756;2022-12-11T09:36:48;2.70;;;0.90;;
35646;SDS011;28680;45.642;13.756;2022-12-11T09:39:15;0.80;;;0.80;;
35646;SDS011;28680;45.642;13.756;2022-12-11T09:44:33;3.00;;;1.90;;
35646;SDS011;28680;45.642;13.756;2022-12-11T09:47:31;1.52;;;1.10;;
35646;SDS011;28680;45.642;13.756;2022-12-11T09:55:23;0.98;;;0.80;;
35646;SDS011;28680;45.642;13.756;2022-12-11T10:01:22;0.90;;;0.80;;
35646;SDS011;28680;45.642;13.756;2022-12-11T10:12:59;1.25;;;0.90;;
35646;SDS011;28680;45.642;13.756;2022-12-11T10:16:04;3.65;;;1.88;;
35646;SDS011;28680;45.642;13.756;2022-12-11T10:19:13;1.55;;;1.00;;
35646;SDS011;28680;45.642;13.756;2022-12-11T10:22:07;0.85;;;0.77;;
35646;SDS011;28680;45.642;13.756;2022-12-11T10:27:21;1.23;;;0.85;;
35646;SDS011;28680;45.642;13.756;2022-12-11T10:30:11;0.95;;;0.90;;
35646;SDS011;28680;45.642;13.756;2022-12-11T10:32:46;1.55;;;1.00;;
35646;SDS011;28680;45.642;13.756;2022-12-11T10:40:43;1.30;;;1.00;;
35646;SDS011;28680;45.642;13.756;2022-12-11T10:43:16;1.02;;;0.90;;
35646;SDS011;28680;45.642;13.756;2022-12-11T10:46:16;1.17;;;1.00;;
35646;SDS011;28680;45.642;13.756;2022-12-11T10:49:17;1.00;;;0.90;;
35646;SDS011;28680;45.642;13.756;2022-12-11T10:51:54;1.42;;;1.30;;
35646;SDS011;28680;45.642;13.756;2022-12-11T10:54:29;2.67;;;1.00;;
35646;SDS011;28680;45.642;13.756;2022-12-11T10:57:08;1.23;;;1.02;;
35646;SDS011;28680;45.642;13.756;2022-12-11T10:59:45;1.42;;;1.08;;
35646;SDS011;28680;45.642;13.756;2022-12-11T11:05:13;2.58;;;1.30;;
35646;SDS011;28680;45.642;13.756;2022-12-11T11:07:51;1.38;;;1.13;;
35646;SDS011;28680;45.642;13.756;2022-12-11T11:10:58;2.47;;;1.40;;
35646;SDS011;28680;45.642;13.756;2022-12-11T11:13:26;2.20;;;1.30;;
35646;SDS011;28680;45.642;13.756;2022-12-11T11:16:05;1.38;;;1.10;;
35646;SDS011;28680;45.642;13.756;2022-12-11T11:18:36;1.88;;;1.30;;
35646;SDS011;28680;45.642;13.756;2022-12-11T11:21:05;3.65;;;1.65;;
35646;SDS011;28680;45.642;13.756;2022-12-11T11:23:31;1.83;;;1.30;;
35646;SDS011;28680;45.642;13.756;2022-12-11T11:26:05;3.35;;;1.45;;
35646;SDS011;28680;45.642;13.756;2022-12-11T11:28:51;2.28;;;1.42;;
35646;SDS011;28680;45.642;13.756;2022-12-11T11:31:29;2.38;;;1.67;;
35646;SDS011;28680;45.642;13.756;2022-12-11T11:34:04;1.67;;;1.40;;
35646;SDS011;28680;45.642;13.756;2022-12-11T11:36:35;1.58;;;1.30;;
35646;SDS011;28680;45.642;13.756;2022-12-11T11:42:24;2.28;;;1.48;;
35646;SDS011;28680;45.642;13.756;2022-12-11T11:45:21;2.45;;;1.50;;
35646;SDS011;28680;45.642;13.756;2022-12-11T11:47:59;1.98;;;1.33;;
35646;SDS011;28680;45.642;13.756;2022-12-11T11:50:32;3.70;;;1.77;;
35646;SDS011;28680;45.642;13.756;2022-12-11T11:53:11;2.60;;;1.70;;
35646;SDS011;28680;45.642;13.756;2022-12-11T12:01:34;1.77;;;1.48;;
35646;SDS011;28680;45.642;13.756;2022-12-11T12:04:00;1.65;;;1.20;;
35646;SDS011;28680;45.642;13.756;2022-12-11T12:06:41;2.22;;;1.50;;
35646;SDS011;28680;45.642;13.756;2022-12-11T12:09:30;1.63;;;1.20;;
35646;SDS011;28680;45.642;13.756;2022-12-11T12:12:32;2.47;;;1.42;;
35646;SDS011;28680;45.642;13.756;2022-12-11T12:15:35;1.65;;;1.45;;
35646;SDS011;28680;45.642;13.756;2022-12-11T12:20:59;6.50;;;2.53;;
35646;SDS011;28680;45.642;13.756;2022-12-11T12:27:17;1.33;;;1.13;;
35646;SDS011;28680;45.642;13.756;2022-12-11T12:30:09;1.50;;;1.10;;
35646;SDS011;28680;45.642;13.756;2022-12-11T12:33:01;3.85;;;1.38;;
35646;SDS011;28680;45.642;13.756;2022-12-11T12:35:48;1.85;;;1.25;;
35646;SDS011;28680;45.642;13.756;2022-12-11T12:49:31;2.13;;;1.30;;
35646;SDS011;28680;45.642;13.756;2022-12-11T12:55:00;1.98;;;1.45;;
35646;SDS011;28680;45.642;13.756;2022-12-11T12:57:54;2.10;;;1.17;;
35646;SDS011;28680;45.642;13.756;2022-12-11T13:02:54;2.33;;;1.50;;
35646;SDS011;28680;45.642;13.756;2022-12-11T13:05:26;1.60;;;1.30;;
35646;SDS011;28680;45.642;13.756;2022-12-11T13:07:59;2.20;;;1.33;;
35646;SDS011;28680;45.642;13.756;2022-12-11T13:10:55;2.22;;;1.40;;
35646;SDS011;28680;45.642;13.756;2022-12-11T13:14:00;1.52;;;1.30;;
35646;SDS011;28680;45.642;13.756;2022-12-11T13:16:36;1.50;;;1.20;;
35646;SDS011;28680;45.642;13.756;2022-12-11T13:21:58;1.85;;;1.20;;
35646;SDS011;28680;45.642;13.756;2022-12-11T13:27:36;3.05;;;1.65;;
35646;SDS011;28680;45.642;13.756;2022-12-11T13:32:30;1.75;;;1.30;;
35646;SDS011;28680;45.642;13.756;2022-12-11T13:34:58;2.45;;;1.85;;
35646;SDS011;28680;45.642;13.756;2022-12-11T13:37:33;3.63;;;1.73;;
35646;SDS011;28680;45.642;13.756;2022-12-11T13:40:08;1.80;;;1.50;;
35646;SDS011;28680;45.642;13.756;2022-12-11T13:48:02;2.35;;;1.80;;
35646;SDS011;28680;45.642;13.756;2022-12-11T13:50:38;1.92;;;1.30;;
35646;SDS011;28680;45.642;13.756;2022-12-11T13:53:15;2.05;;;1.60;;
35646;SDS011;28680;45.642;13.756;2022-12-11T13:58:18;2.80;;;1.42;;
35646;SDS011;28680;45.642;13.756;2022-12-11T14:01:20;2.45;;;1.52;;
35646;SDS011;28680;45.642;13.756;2022-12-11T14:08:55;3.55;;;1.30;;
35646;SDS011;28680;45.642;13.756;2022-12-11T14:11:25;2.60;;;1.33;;
35646;SDS011;28680;45.642;13.756;2022-12-11T14:14:07;1.90;;;1.40;;
35646;SDS011;28680;45.642;13.756;2022-12-11T14:16:57;1.65;;;1.35;;
35646;SDS011;28680;45.642;13.756;2022-12-11T14:19:24;1.45;;;1.20;;
35646;SDS011;28680;45.642;13.756;2022-12-11T14:21:57;2.20;;;1.42;;
35646;SDS011;28680;45.642;13.756;2022-12-11T14:24:27;1.98;;;1.45;;
35646;SDS011;28680;45.642;13.756;2022-12-11T14:26:54;1.88;;;1.35;;
35646;SDS011;28680;45.642;13.756;2022-12-11T14:31:54;2.60;;;1.58;;
35646;SDS011;28680;45.642;13.756;2022-12-11T14:34:36;1.95;;;1.48;;
35646;SDS011;28680;45.642;13.756;2022-12-11T14:37:09;1.75;;;1.33;;
35646;SDS011;28680;45.642;13.756;2022-12-11T14:39:39;1.83;;;1.38;;
35646;SDS011;28680;45.642;13.756;2022-12-11T14:42:36;2.38;;;1.40;;
35646;SDS011;28680;45.642;13.756;2022-12-11T14:47:50;2.50;;;1.63;;
35646;SDS011;28680;45.642;13.756;2022-12-11T14:50:18;5.20;;;2.30;;
35646;SDS011;28680;45.642;13.756;2022-12-11T14:52:59;3.67;;;1.58;;
35646;SDS011;28680;45.642;13.756;2022-12-11T14:55:29;2.78;;;1.23;;
35646;SDS011;28680;45.642;13.756;2022-12-11T14:58:02;2.20;;;1.40;;
35646;SDS011;28680;45.642;13.756;2022-12-11T15:00:37;2.35;;;1.92;;
35646;SDS011;28680;45.642;13.756;2022-12-11T15:03:04;2.28;;;1.40;;
35646;SDS011;28680;45.642;13.756;2022-12-11T15:05:54;1.58;;;1.20;;
35646;SDS011;28680;45.642;13.756;2022-12-11T15:08:26;1.45;;;1.17;;
35646;SDS011;28680;45.642;13.756;2022-12-11T15:11:07;1.83;;;1.48;;
35646;SDS011;28680;45.642;13.756;2022-12-11T15:16:25;2.75;;;1.63;;
35646;SDS011;28680;45.642;13.756;2022-12-11T15:18:55;1.52;;;1.23;;
35646;SDS011;28680;45.642;13.756;2022-12-11T15:21:30;2.17;;;1.48;;
35646;SDS011;28680;45.642;13.756;2022-12-11T15:23:59;1.67;;;1.17;;
35646;SDS011;28680;45.642;13.756;2022-12-11T15:31:59;1.63;;;1.00;;
35646;SDS011;28680;45.642;13.756;2022-12-11T15:34:43;1.13;;;1.02;;
35646;SDS011;28680;45.642;13.756;2022-12-11T15:39:51;1.35;;;1.02;;
35646;SDS011;28680;45.642;13.756;2022-12-11T15:42:30;2.22;;;1.55;;
35646;SDS011;28680;45.642;13.756;2022-12-11T15:45:01;1.92;;;1.20;;
35646;SDS011;28680;45.642;13.756;2022-12-11T15:47:30;1.70;;;1.27;;
35646;SDS011;28680;45.642;13.756;2022-12-11T15:49:58;1.90;;;1.08;;
35646;SDS011;28680;45.642;13.756;2022-12-11T15:52:26;3.05;;;1.60;;
35646;SDS011;28680;45.642;13.756;2022-12-11T15:54:52;1.30;;;1.10;;
35646;SDS011;28680;45.642;13.756;2022-12-11T15:57:19;2.70;;;1.60;;
35646;SDS011;28680;45.642;13.756;2022-12-11T15:59:48;1.45;;;1.00;;
35646;SDS011;28680;45.642;13.756;2022-12-11T16:02:16;2.28;;;1.13;;
35646;SDS011;28680;45.642;13.756;2022-12-11T16:04:42;1.80;;;1.23;;
35646;SDS011;28680;45.642;13.756;2022-12-11T16:07:12;1.73;;;1.42;;
35646;SDS011;28680;45.642;13.756;2022-12-11T16:09:49;1.60;;;1.20;;
35646;SDS011;28680;45.642;13.756;2022-12-11T16:12:15;2.25;;;1.40;;
35646;SDS011;28680;45.642;13.756;2022-12-11T16:14:42;1.77;;;1.27;;
35646;SDS011;28680;45.642;13.756;2022-12-11T16:17:09;1.65;;;1.27;;
35646;SDS011;28680;45.642;13.756;2022-12-11T16:19:38;3.08;;;1.90;;
35646;SDS011;28680;45.642;13.756;2022-12-11T16:22:05;4.35;;;2.17;;
35646;SDS011;28680;45.642;13.756;2022-12-11T16:24:34;2.20;;;1.70;;
35646;SDS011;28680;45.642;13.756;2022-12-11T16:33:15;2.22;;;1.52;;
35646;SDS011;28680;45.642;13.756;2022-12-11T16:41:52;2.33;;;1.80;;
35646;SDS011;28680;45.642;13.756;2022-12-11T16:44:36;2.78;;;1.40;;
35646;SDS011;28680;45.642;13.756;2022-12-11T16:47:03;1.63;;;1.40;;
35646;SDS011;28680;45.642;13.756;2022-12-11T17:05:30;3.10;;;1.58;;
35646;SDS011;28680;45.642;13.756;2022-12-11T17:24:36;2.22;;;1.40;;
35646;SDS011;28680;45.642;13.756;2022-12-11T17:27:02;1.92;;;1.50;;
35646;SDS011;28680;45.642;13.756;2022-12-11T17:29:28;2.85;;;1.70;;
35646;SDS011;28680;45.642;13.756;2022-12-11T17:31:53;2.70;;;1.50;;
35646;SDS011;28680;45.642;13.756;2022-12-11T17:34:19;2.42;;;1.40;;
35646;SDS011;28680;45.642;13.756;2022-12-11T17:36:45;2.55;;;1.45;;
35646;SDS011;28680;45.642;13.756;2022-12-11T17:39:11;2.10;;;1.48;;
35646;SDS011;28680;45.642;13.756;2022-12-11T17:41:37;1.85;;;1.20;;
35646;SDS011;28680;45.642;13.756;2022-12-11T17:44:03;2.13;;;1.40;;
35646;SDS011;28680;45.642;13.756;2022-12-11T17:46:29;1.60;;;1.38;;
35646;SDS011;28680;45.642;13.756;2022-12-11T17:48:55;3.05;;;1.27;;
35646;SDS011;28680;45.642;13.756;2022-12-11T17:51:23;2.35;;;1.50;;
35646;SDS011;28680;45.642;13.756;2022-12-11T17:53:50;1.65;;;1.17;;
35646;SDS011;28680;45.642;13.756;2022-12-11T17:56:19;2.30;;;1.33;;